sensor_id;sensor_type;location;lat;lon;timestamp;noise_LAeq;noise_LA_min;noise_LA_max;noise_LA01;noise_LA95
79200;Laerm;68628;48.714;9.472;2023-07-09T00:02:01;41.39;36.05;56.31;;
79200;Laerm;68628;48.714;9.472;2023-07-09T00:04:27;41.26;37.21;51.21;;
79200;Laerm;68628;48.714;9.472;2023-07-09T00:07:03;40.39;37.07;49.15;;
79200;Laerm;68628;48.714;9.472;2023-07-09T00:09:29;42.09;35.92;57.38;;
79200;Laerm;68628;48.714;9.472;2023-07-09T00:11:55;40.14;36.04;52.21;;
79200;Laerm;68628;48.714;9.472;2023-07-09T00:14:21;37.54;35.61;41.17;;
79200;Laerm;68628;48.714;9.472;2023-07-09T00:16:47;39.06;36.16;48.25;;
79200;Laerm;68628;48.714;9.472;2023-07-09T00:19:20;39.46;36.51;48.43;;
79200;Laerm;68628;48.714;9.472;2023-07-09T00:21:50;42.28;36.25;56.56;;
79200;Laerm;68628;48.714;9.472;2023-07-09T00:24:19;38.47;35.49;44.86;;
79200;Laerm;68628;48.714;9.472;2023-07-09T00:26:45;36.88;34.17;43.09;;
79200;Laerm;68628;48.714;9.472;2023-07-09T00:29:15;38.48;33.88;48.11;;
79200;Laerm;68628;48.714;9.472;2023-07-09T00:31:41;37.72;35.30;43.09;;
79200;Laerm;68628;48.714;9.472;2023-07-09T00:34:10;38.98;35.31;47.33;;
79200;Laerm;68628;48.714;9.472;2023-07-09T00:36:40;49.64;34.85;66.97;;
79200;Laerm;68628;48.714;9.472;2023-07-09T00:39:19;39.85;36.04;52.14;;
79200;Laerm;68628;48.714;9.472;2023-07-09T00:41:46;37.62;35.26;41.44;;
79200;Laerm;68628;48.714;9.472;2023-07-09T00:44:31;37.07;34.89;40.49;;
79200;Laerm;68628;48.714;9.472;2023-07-09T00:52:10;36.89;34.77;41.31;;
79200;Laerm;68628;48.714;9.472;2023-07-09T00:54:45;40.81;34.36;51.81;;
79200;Laerm;68628;48.714;9.472;2023-07-09T00:57:22;40.55;35.75;54.27;;
79200;Laerm;68628;48.714;9.472;2023-07-09T00:59:58;37.80;34.98;42.98;;
79200;Laerm;68628;48.714;9.472;2023-07-09T01:02:25;36.61;34.34;40.55;;
79200;Laerm;68628;48.714;9.472;2023-07-09T01:04:58;37.05;34.77;41.28;;
79200;Laerm;68628;48.714;9.472;2023-07-09T01:07:28;37.74;34.51;44.46;;
79200;Laerm;68628;48.714;9.472;2023-07-09T01:09:54;37.45;34.64;42.40;;
79200;Laerm;68628;48.714;9.472;2023-07-09T01:12:22;37.76;35.68;41.70;;
79200;Laerm;68628;48.714;9.472;2023-07-09T01:14:57;37.38;35.43;41.88;;
79200;Laerm;68628;48.714;9.472;2023-07-09T01:17:27;35.66;33.68;38.66;;
79200;Laerm;68628;48.714;9.472;2023-07-09T01:19:55;36.28;33.70;48.22;;
79200;Laerm;68628;48.714;9.472;2023-07-09T01:22:23;37.30;35.47;44.71;;
79200;Laerm;68628;48.714;9.472;2023-07-09T01:25:05;41.22;34.65;54.91;;
79200;Laerm;68628;48.714;9.472;2023-07-09T01:27:40;43.20;35.53;56.23;;
79200;Laerm;68628;48.714;9.472;2023-07-09T01:30:33;38.09;34.88;42.64;;
79200;Laerm;68628;48.714;9.472;2023-07-09T01:33:01;37.38;35.15;41.01;;
79200;Laerm;68628;48.714;9.472;2023-07-09T01:35:32;39.69;35.12;50.73;;
79200;Laerm;68628;48.714;9.472;2023-07-09T01:37:58;37.90;35.01;51.71;;
79200;Laerm;68628;48.714;9.472;2023-07-09T01:40:26;38.44;35.30;45.17;;
79200;Laerm;68628;48.714;9.472;2023-07-09T01:42:55;38.24;34.97;46.60;;
79200;Laerm;68628;48.714;9.472;2023-07-09T01:45:21;41.51;35.52;53.07;;
79200;Laerm;68628;48.714;9.472;2023-07-09T01:47:47;36.21;33.94;40.20;;
79200;Laerm;68628;48.714;9.472;2023-07-09T01:50:13;36.70;34.55;40.28;;
79200;Laerm;68628;48.714;9.472;2023-07-09T01:52:44;37.29;34.85;43.97;;
79200;Laerm;68628;48.714;9.472;2023-07-09T01:55:14;39.41;35.85;45.57;;
79200;Laerm;68628;48.714;9.472;2023-07-09T01:57:43;40.82;34.68;47.29;;
79200;Laerm;68628;48.714;9.472;2023-07-09T02:00:15;35.66;33.15;40.81;;
79200;Laerm;68628;48.714;9.472;2023-07-09T02:02:50;42.86;33.65;60.22;;
79200;Laerm;68628;48.714;9.472;2023-07-09T02:05:28;35.21;32.85;38.52;;
79200;Laerm;68628;48.714;9.472;2023-07-09T02:08:00;36.60;33.94;41.46;;
79200;Laerm;68628;48.714;9.472;2023-07-09T02:10:26;36.12;33.97;38.53;;
79200;Laerm;68628;48.714;9.472;2023-07-09T02:12:58;36.60;34.34;41.54;;
79200;Laerm;68628;48.714;9.472;2023-07-09T02:15:29;39.90;34.03;52.79;;
79200;Laerm;68628;48.714;9.472;2023-07-09T02:18:00;36.74;34.14;40.62;;
79200;Laerm;68628;48.714;9.472;2023-07-09T02:20:51;37.67;34.97;45.74;;
79200;Laerm;68628;48.714;9.472;2023-07-09T02:23:38;36.05;33.74;38.25;;
79200;Laerm;68628;48.714;9.472;2023-07-09T02:26:09;35.40;33.20;41.49;;
79200;Laerm;68628;48.714;9.472;2023-07-09T02:28:41;35.91;32.89;41.47;;
79200;Laerm;68628;48.714;9.472;2023-07-09T02:31:17;35.57;33.52;40.47;;
79200;Laerm;68628;48.714;9.472;2023-07-09T02:33:45;35.68;33.06;39.76;;
79200;Laerm;68628;48.714;9.472;2023-07-09T02:36:33;36.09;34.04;43.16;;
79200;Laerm;68628;48.714;9.472;2023-07-09T02:39:36;36.71;33.92;51.07;;
79200;Laerm;68628;48.714;9.472;2023-07-09T02:42:14;38.89;34.93;46.06;;
79200;Laerm;68628;48.714;9.472;2023-07-09T02:44:53;38.59;34.63;46.47;;
79200;Laerm;68628;48.714;9.472;2023-07-09T02:47:22;37.84;34.72;45.20;;
79200;Laerm;68628;48.714;9.472;2023-07-09T02:49:48;39.94;34.98;52.69;;
79200;Laerm;68628;48.714;9.472;2023-07-09T02:52:19;38.94;35.19;52.42;;
79200;Laerm;68628;48.714;9.472;2023-07-09T02:54:57;43.11;35.39;57.58;;
79200;Laerm;68628;48.714;9.472;2023-07-09T02:57:31;41.21;34.66;53.24;;
79200;Laerm;68628;48.714;9.472;2023-07-09T03:00:00;37.78;34.42;48.69;;
79200;Laerm;68628;48.714;9.472;2023-07-09T03:02:25;38.57;34.67;45.65;;
79200;Laerm;68628;48.714;9.472;2023-07-09T03:04:54;39.35;35.38;47.98;;
79200;Laerm;68628;48.714;9.472;2023-07-09T03:07:24;37.80;34.84;52.99;;
79200;Laerm;68628;48.714;9.472;2023-07-09T03:09:52;39.09;34.38;56.67;;
79200;Laerm;68628;48.714;9.472;2023-07-09T03:12:18;40.99;34.56;54.45;;
79200;Laerm;68628;48.714;9.472;2023-07-09T03:14:48;38.33;33.99;52.05;;
79200;Laerm;68628;48.714;9.472;2023-07-09T03:17:17;38.66;34.53;54.39;;
79200;Laerm;68628;48.714;9.472;2023-07-09T03:19:43;38.81;34.14;51.49;;
79200;Laerm;68628;48.714;9.472;2023-07-09T03:22:09;37.09;34.50;41.51;;
79200;Laerm;68628;48.714;9.472;2023-07-09T03:24:38;37.34;34.59;40.97;;
79200;Laerm;68628;48.714;9.472;2023-07-09T03:27:04;39.03;35.36;52.68;;
79200;Laerm;68628;48.714;9.472;2023-07-09T03:29:30;39.34;36.38;46.06;;
79200;Laerm;68628;48.714;9.472;2023-07-09T03:31:56;39.84;35.25;51.41;;
79200;Laerm;68628;48.714;9.472;2023-07-09T03:34:22;41.44;34.47;53.40;;
79200;Laerm;68628;48.714;9.472;2023-07-09T03:36:48;41.13;34.94;53.39;;
79200;Laerm;68628;48.714;9.472;2023-07-09T03:39:14;38.52;35.31;47.27;;
79200;Laerm;68628;48.714;9.472;2023-07-09T03:41:40;38.76;35.28;53.12;;
79200;Laerm;68628;48.714;9.472;2023-07-09T03:44:11;38.15;35.20;46.03;;
79200;Laerm;68628;48.714;9.472;2023-07-09T03:46:40;43.03;35.12;57.36;;
79200;Laerm;68628;48.714;9.472;2023-07-09T03:49:06;39.44;34.74;50.35;;
79200;Laerm;68628;48.714;9.472;2023-07-09T03:51:34;41.30;36.11;50.72;;
79200;Laerm;68628;48.714;9.472;2023-07-09T03:54:01;41.88;36.31;53.97;;
79200;Laerm;68628;48.714;9.472;2023-07-09T03:56:30;40.95;36.89;50.05;;
79200;Laerm;68628;48.714;9.472;2023-07-09T03:58:56;45.33;35.56;64.57;;
79200;Laerm;68628;48.714;9.472;2023-07-09T04:01:21;39.11;35.09;53.93;;
79200;Laerm;68628;48.714;9.472;2023-07-09T04:03:47;42.42;35.59;52.14;;
79200;Laerm;68628;48.714;9.472;2023-07-09T04:06:15;41.15;35.97;53.65;;
79200;Laerm;68628;48.714;9.472;2023-07-09T04:08:41;42.26;35.48;57.48;;
79200;Laerm;68628;48.714;9.472;2023-07-09T04:11:10;44.97;36.11;57.35;;
79200;Laerm;68628;48.714;9.472;2023-07-09T04:13:36;45.78;36.20;53.02;;
79200;Laerm;68628;48.714;9.472;2023-07-09T04:16:05;44.70;34.53;53.87;;
79200;Laerm;68628;48.714;9.472;2023-07-09T04:18:33;38.72;35.20;48.64;;
79200;Laerm;68628;48.714;9.472;2023-07-09T04:21:01;43.00;35.03;54.79;;
79200;Laerm;68628;48.714;9.472;2023-07-09T04:23:27;42.39;35.42;55.76;;
79200;Laerm;68628;48.714;9.472;2023-07-09T04:26:01;42.87;36.13;53.63;;
79200;Laerm;68628;48.714;9.472;2023-07-09T04:28:32;45.09;35.96;56.04;;
79200;Laerm;68628;48.714;9.472;2023-07-09T04:30:58;44.42;36.70;60.78;;
79200;Laerm;68628;48.714;9.472;2023-07-09T04:33:25;49.54;35.95;72.96;;
79200;Laerm;68628;48.714;9.472;2023-07-09T04:35:51;44.13;35.74;58.17;;
79200;Laerm;68628;48.714;9.472;2023-07-09T04:38:19;45.18;35.72;58.54;;
79200;Laerm;68628;48.714;9.472;2023-07-09T04:40:48;45.15;36.64;53.08;;
79200;Laerm;68628;48.714;9.472;2023-07-09T04:43:14;44.93;36.09;57.05;;
79200;Laerm;68628;48.714;9.472;2023-07-09T04:45:40;41.75;34.52;55.93;;
79200;Laerm;68628;48.714;9.472;2023-07-09T04:48:07;37.49;34.28;49.14;;
79200;Laerm;68628;48.714;9.472;2023-07-09T04:50:33;45.43;34.57;53.50;;
79200;Laerm;68628;48.714;9.472;2023-07-09T04:53:02;38.31;35.07;47.03;;
79200;Laerm;68628;48.714;9.472;2023-07-09T04:55:27;37.50;34.43;44.89;;
79200;Laerm;68628;48.714;9.472;2023-07-09T04:57:53;41.89;34.57;56.80;;
79200;Laerm;68628;48.714;9.472;2023-07-09T05:00:19;41.17;35.12;58.00;;
79200;Laerm;68628;48.714;9.472;2023-07-09T05:02:46;41.69;37.30;52.31;;
79200;Laerm;68628;48.714;9.472;2023-07-09T05:05:11;41.20;36.30;52.02;;
79200;Laerm;68628;48.714;9.472;2023-07-09T05:07:38;38.76;34.76;50.66;;
79200;Laerm;68628;48.714;9.472;2023-07-09T05:10:09;44.16;35.21;57.50;;
79200;Laerm;68628;48.714;9.472;2023-07-09T05:12:35;41.82;35.16;58.01;;
79200;Laerm;68628;48.714;9.472;2023-07-09T05:15:09;44.40;35.48;62.71;;
79200;Laerm;68628;48.714;9.472;2023-07-09T05:17:38;46.00;34.75;58.72;;
79200;Laerm;68628;48.714;9.472;2023-07-09T05:20:10;46.00;36.20;53.76;;
79200;Laerm;68628;48.714;9.472;2023-07-09T05:22:36;43.44;35.54;57.22;;
79200;Laerm;68628;48.714;9.472;2023-07-09T05:25:04;42.55;34.86;53.66;;
79200;Laerm;68628;48.714;9.472;2023-07-09T05:27:33;45.19;36.15;57.41;;
79200;Laerm;68628;48.714;9.472;2023-07-09T05:29:59;41.63;35.91;52.65;;
79200;Laerm;68628;48.714;9.472;2023-07-09T05:32:34;42.42;36.56;55.25;;
79200;Laerm;68628;48.714;9.472;2023-07-09T05:35:19;43.12;36.76;54.91;;
79200;Laerm;68628;48.714;9.472;2023-07-09T05:37:56;43.83;35.74;57.68;;
79200;Laerm;68628;48.714;9.472;2023-07-09T05:41:04;43.86;36.57;54.26;;
79200;Laerm;68628;48.714;9.472;2023-07-09T05:43:52;44.05;35.17;64.01;;
79200;Laerm;68628;48.714;9.472;2023-07-09T05:46:34;39.44;35.64;47.75;;
79200;Laerm;68628;48.714;9.472;2023-07-09T05:49:09;42.78;35.21;56.18;;
79200;Laerm;68628;48.714;9.472;2023-07-09T05:51:37;39.50;35.01;50.88;;
79200;Laerm;68628;48.714;9.472;2023-07-09T05:54:06;46.89;35.76;62.41;;
79200;Laerm;68628;48.714;9.472;2023-07-09T05:56:37;50.93;34.89;68.65;;
79200;Laerm;68628;48.714;9.472;2023-07-09T05:59:09;40.22;35.36;50.01;;
79200;Laerm;68628;48.714;9.472;2023-07-09T06:01:41;50.31;35.56;56.77;;
79200;Laerm;68628;48.714;9.472;2023-07-09T06:04:12;44.89;35.54;59.43;;
79200;Laerm;68628;48.714;9.472;2023-07-09T06:06:51;46.70;36.20;61.87;;
79200;Laerm;68628;48.714;9.472;2023-07-09T06:09:17;43.26;37.15;53.79;;
79200;Laerm;68628;48.714;9.472;2023-07-09T06:11:51;41.57;36.10;51.75;;
79200;Laerm;68628;48.714;9.472;2023-07-09T06:14:26;45.35;35.86;58.11;;
79200;Laerm;68628;48.714;9.472;2023-07-09T06:17:01;44.28;36.71;57.87;;
79200;Laerm;68628;48.714;9.472;2023-07-09T06:19:32;43.54;36.09;56.12;;
79200;Laerm;68628;48.714;9.472;2023-07-09T06:22:14;43.65;36.42;53.12;;
79200;Laerm;68628;48.714;9.472;2023-07-09T06:24:50;40.92;35.69;53.13;;
79200;Laerm;68628;48.714;9.472;2023-07-09T06:27:18;42.31;35.75;55.36;;
79200;Laerm;68628;48.714;9.472;2023-07-09T06:29:55;43.85;35.97;59.41;;
79200;Laerm;68628;48.714;9.472;2023-07-09T06:32:23;43.68;36.25;54.86;;
79200;Laerm;68628;48.714;9.472;2023-07-09T06:34:49;46.53;36.52;55.48;;
79200;Laerm;68628;48.714;9.472;2023-07-09T06:37:17;44.53;37.48;57.92;;
79200;Laerm;68628;48.714;9.472;2023-07-09T06:39:46;46.09;37.23;55.82;;
79200;Laerm;68628;48.714;9.472;2023-07-09T06:42:15;47.96;37.26;58.47;;
79200;Laerm;68628;48.714;9.472;2023-07-09T06:44:41;44.41;36.29;57.97;;
79200;Laerm;68628;48.714;9.472;2023-07-09T06:47:06;40.06;35.66;53.78;;
79200;Laerm;68628;48.714;9.472;2023-07-09T06:49:32;42.49;35.00;53.45;;
79200;Laerm;68628;48.714;9.472;2023-07-09T06:51:58;43.14;36.13;53.54;;
79200;Laerm;68628;48.714;9.472;2023-07-09T06:54:27;46.78;36.86;62.36;;
79200;Laerm;68628;48.714;9.472;2023-07-09T06:56:53;44.72;37.96;56.73;;
79200;Laerm;68628;48.714;9.472;2023-07-09T06:59:19;51.03;36.57;67.09;;
79200;Laerm;68628;48.714;9.472;2023-07-09T07:01:53;41.94;36.61;52.98;;
79200;Laerm;68628;48.714;9.472;2023-07-09T07:04:29;42.86;36.00;59.10;;
79200;Laerm;68628;48.714;9.472;2023-07-09T07:07:06;47.08;37.40;60.34;;
79200;Laerm;68628;48.714;9.472;2023-07-09T07:09:44;47.10;36.70;62.00;;
79200;Laerm;68628;48.714;9.472;2023-07-09T07:12:23;45.49;35.50;62.24;;
79200;Laerm;68628;48.714;9.472;2023-07-09T07:14:53;47.88;36.60;65.47;;
79200;Laerm;68628;48.714;9.472;2023-07-09T07:17:22;44.41;37.07;56.28;;
79200;Laerm;68628;48.714;9.472;2023-07-09T07:19:50;41.30;36.28;52.05;;
79200;Laerm;68628;48.714;9.472;2023-07-09T07:22:26;42.65;35.87;55.01;;
79200;Laerm;68628;48.714;9.472;2023-07-09T07:24:52;43.57;36.04;55.45;;
79200;Laerm;68628;48.714;9.472;2023-07-09T07:27:18;44.03;36.73;55.06;;
79200;Laerm;68628;48.714;9.472;2023-07-09T07:29:44;42.51;36.26;53.44;;
79200;Laerm;68628;48.714;9.472;2023-07-09T07:32:11;42.48;35.92;54.47;;
79200;Laerm;68628;48.714;9.472;2023-07-09T07:34:36;43.06;36.49;56.47;;
79200;Laerm;68628;48.714;9.472;2023-07-09T07:37:05;42.38;35.78;53.11;;
79200;Laerm;68628;48.714;9.472;2023-07-09T07:39:31;44.55;35.67;56.76;;
79200;Laerm;68628;48.714;9.472;2023-07-09T07:41:56;44.32;35.82;55.31;;
79200;Laerm;68628;48.714;9.472;2023-07-09T07:44:26;43.55;35.27;55.57;;
79200;Laerm;68628;48.714;9.472;2023-07-09T07:46:57;40.59;35.58;54.94;;
79200;Laerm;68628;48.714;9.472;2023-07-09T07:49:22;45.26;35.88;58.68;;
79200;Laerm;68628;48.714;9.472;2023-07-09T07:51:48;46.74;36.88;65.12;;
79200;Laerm;68628;48.714;9.472;2023-07-09T07:54:18;43.03;35.69;62.35;;
79200;Laerm;68628;48.714;9.472;2023-07-09T07:56:51;45.65;35.65;61.58;;
79200;Laerm;68628;48.714;9.472;2023-07-09T07:59:17;41.50;35.80;54.46;;
79200;Laerm;68628;48.714;9.472;2023-07-09T08:01:46;49.79;38.26;65.14;;
79200;Laerm;68628;48.714;9.472;2023-07-09T08:04:12;43.87;37.78;57.65;;
79200;Laerm;68628;48.714;9.472;2023-07-09T08:06:37;42.93;35.66;53.54;;
79200;Laerm;68628;48.714;9.472;2023-07-09T08:09:03;46.91;36.31;56.40;;
79200;Laerm;68628;48.714;9.472;2023-07-09T08:11:28;47.61;37.38;55.88;;
79200;Laerm;68628;48.714;9.472;2023-07-09T08:13:56;43.37;35.96;54.16;;
79200;Laerm;68628;48.714;9.472;2023-07-09T08:16:22;45.89;36.24;56.07;;
79200;Laerm;68628;48.714;9.472;2023-07-09T08:18:47;42.86;36.08;52.32;;
79200;Laerm;68628;48.714;9.472;2023-07-09T08:21:13;44.01;35.53;63.76;;
79200;Laerm;68628;48.714;9.472;2023-07-09T08:23:39;45.31;37.51;56.07;;
79200;Laerm;68628;48.714;9.472;2023-07-09T08:26:05;48.94;36.90;63.46;;
79200;Laerm;68628;48.714;9.472;2023-07-09T08:28:32;41.21;36.24;51.27;;
79200;Laerm;68628;48.714;9.472;2023-07-09T08:30:58;40.79;35.71;52.99;;
79200;Laerm;68628;48.714;9.472;2023-07-09T08:33:24;47.50;35.67;67.26;;
79200;Laerm;68628;48.714;9.472;2023-07-09T08:35:52;45.04;35.84;55.91;;
79200;Laerm;68628;48.714;9.472;2023-07-09T08:38:19;44.73;36.73;54.42;;
79200;Laerm;68628;48.714;9.472;2023-07-09T08:41:02;42.64;36.32;52.56;;
79200;Laerm;68628;48.714;9.472;2023-07-09T08:46:18;44.64;35.28;57.53;;
79200;Laerm;68628;48.714;9.472;2023-07-09T08:48:51;44.07;36.36;53.26;;
79200;Laerm;68628;48.714;9.472;2023-07-09T08:51:41;43.69;36.45;57.69;;
79200;Laerm;68628;48.714;9.472;2023-07-09T08:54:26;46.52;36.41;56.08;;
79200;Laerm;68628;48.714;9.472;2023-07-09T08:56:59;44.05;36.70;57.08;;
79200;Laerm;68628;48.714;9.472;2023-07-09T08:59:29;41.26;35.86;55.71;;
79200;Laerm;68628;48.714;9.472;2023-07-09T09:01:59;39.21;35.90;49.13;;
79200;Laerm;68628;48.714;9.472;2023-07-09T09:04:31;43.23;35.42;55.19;;
79200;Laerm;68628;48.714;9.472;2023-07-09T09:07:39;42.50;36.21;56.28;;
79200;Laerm;68628;48.714;9.472;2023-07-09T09:10:15;46.75;36.88;61.49;;
79200;Laerm;68628;48.714;9.472;2023-07-09T09:13:03;44.36;36.63;54.10;;
79200;Laerm;68628;48.714;9.472;2023-07-09T09:15:31;44.46;36.98;62.92;;
79200;Laerm;68628;48.714;9.472;2023-07-09T09:18:16;45.45;36.59;57.08;;
79200;Laerm;68628;48.714;9.472;2023-07-09T09:20:47;45.30;37.73;55.55;;
79200;Laerm;68628;48.714;9.472;2023-07-09T09:23:15;41.81;36.19;52.70;;
79200;Laerm;68628;48.714;9.472;2023-07-09T09:25:51;41.93;35.81;53.39;;
79200;Laerm;68628;48.714;9.472;2023-07-09T09:28:19;43.39;36.37;54.23;;
79200;Laerm;68628;48.714;9.472;2023-07-09T09:30:45;42.77;36.15;51.44;;
79200;Laerm;68628;48.714;9.472;2023-07-09T09:33:11;40.51;36.39;49.17;;
79200;Laerm;68628;48.714;9.472;2023-07-09T09:35:41;44.86;36.61;54.87;;
79200;Laerm;68628;48.714;9.472;2023-07-09T09:38:17;53.59;37.25;73.57;;
79200;Laerm;68628;48.714;9.472;2023-07-09T09:40:44;43.80;37.40;57.83;;
79200;Laerm;68628;48.714;9.472;2023-07-09T09:43:18;46.81;36.13;65.72;;
79200;Laerm;68628;48.714;9.472;2023-07-09T09:45:48;41.63;35.37;52.95;;
79200;Laerm;68628;48.714;9.472;2023-07-09T09:48:37;58.32;36.34;84.13;;
79200;Laerm;68628;48.714;9.472;2023-07-09T09:51:05;43.59;36.28;60.37;;
79200;Laerm;68628;48.714;9.472;2023-07-09T09:53:39;43.60;36.17;53.12;;
79200;Laerm;68628;48.714;9.472;2023-07-09T09:56:17;46.00;36.31;59.57;;
79200;Laerm;68628;48.714;9.472;2023-07-09T09:58:44;46.16;37.03;60.00;;
79200;Laerm;68628;48.714;9.472;2023-07-09T10:01:18;43.16;37.14;53.35;;
79200;Laerm;68628;48.714;9.472;2023-07-09T10:03:49;45.62;36.76;55.53;;
79200;Laerm;68628;48.714;9.472;2023-07-09T10:06:19;45.66;36.55;55.97;;
79200;Laerm;68628;48.714;9.472;2023-07-09T10:17:56;47.07;35.12;64.98;;
79200;Laerm;68628;48.714;9.472;2023-07-09T10:20:39;51.54;34.09;70.63;;
79200;Laerm;68628;48.714;9.472;2023-07-09T10:23:33;43.58;36.18;54.78;;
79200;Laerm;68628;48.714;9.472;2023-07-09T10:26:22;51.25;34.92;79.81;;
79200;Laerm;68628;48.714;9.472;2023-07-09T10:37:53;52.94;35.80;74.45;;
79200;Laerm;68628;48.714;9.472;2023-07-09T10:40:35;63.89;35.09;83.64;;
79200;Laerm;68628;48.714;9.472;2023-07-09T10:43:05;44.47;36.53;58.50;;
79200;Laerm;68628;48.714;9.472;2023-07-09T10:45:47;41.85;34.77;56.40;;
79200;Laerm;68628;48.714;9.472;2023-07-09T10:48:35;42.85;34.33;56.34;;
79200;Laerm;68628;48.714;9.472;2023-07-09T10:51:38;49.67;34.93;70.56;;
79200;Laerm;68628;48.714;9.472;2023-07-09T10:54:30;45.10;36.29;61.38;;
79200;Laerm;68628;48.714;9.472;2023-07-09T10:57:17;48.11;37.08;62.70;;
79200;Laerm;68628;48.714;9.472;2023-07-09T10:59:50;45.11;35.65;59.31;;
79200;Laerm;68628;48.714;9.472;2023-07-09T11:02:36;45.24;36.14;58.64;;
79200;Laerm;68628;48.714;9.472;2023-07-09T11:05:06;51.17;37.10;68.88;;
79200;Laerm;68628;48.714;9.472;2023-07-09T11:07:55;48.21;35.22;73.06;;
79200;Laerm;68628;48.714;9.472;2023-07-09T11:10:41;45.40;35.38;60.65;;
79200;Laerm;68628;48.714;9.472;2023-07-09T11:13:41;49.85;35.69;70.87;;
79200;Laerm;68628;48.714;9.472;2023-07-09T11:16:38;48.98;36.41;67.18;;
79200;Laerm;68628;48.714;9.472;2023-07-09T11:19:16;47.06;37.13;63.83;;
79200;Laerm;68628;48.714;9.472;2023-07-09T11:22:20;42.39;33.91;53.97;;
79200;Laerm;68628;48.714;9.472;2023-07-09T11:25:06;47.88;34.92;66.88;;
79200;Laerm;68628;48.714;9.472;2023-07-09T11:27:33;46.07;36.17;63.09;;
79200;Laerm;68628;48.714;9.472;2023-07-09T11:30:03;44.94;35.09;64.30;;
79200;Laerm;68628;48.714;9.472;2023-07-09T11:32:46;44.86;35.08;59.45;;
79200;Laerm;68628;48.714;9.472;2023-07-09T11:35:28;50.17;36.44;68.12;;
79200;Laerm;68628;48.714;9.472;2023-07-09T11:37:55;45.49;34.12;65.92;;
79200;Laerm;68628;48.714;9.472;2023-07-09T11:40:23;44.30;34.28;63.56;;
79200;Laerm;68628;48.714;9.472;2023-07-09T11:42:55;44.93;34.17;62.91;;
79200;Laerm;68628;48.714;9.472;2023-07-09T11:45:41;48.72;35.57;69.59;;
79200;Laerm;68628;48.714;9.472;2023-07-09T11:48:27;48.46;38.51;67.02;;
79200;Laerm;68628;48.714;9.472;2023-07-09T11:50:58;47.95;38.43;63.87;;
79200;Laerm;68628;48.714;9.472;2023-07-09T11:53:34;53.22;36.60;77.55;;
79200;Laerm;68628;48.714;9.472;2023-07-09T11:56:02;45.88;37.89;65.53;;
79200;Laerm;68628;48.714;9.472;2023-07-09T11:58:28;41.51;35.97;54.84;;
79200;Laerm;68628;48.714;9.472;2023-07-09T12:00:58;49.70;35.15;67.86;;
79200;Laerm;68628;48.714;9.472;2023-07-09T12:03:36;46.42;35.25;69.79;;
79200;Laerm;68628;48.714;9.472;2023-07-09T12:06:30;47.06;35.10;59.26;;
79200;Laerm;68628;48.714;9.472;2023-07-09T12:08:57;44.69;34.89;55.07;;
79200;Laerm;68628;48.714;9.472;2023-07-09T12:11:28;47.03;35.62;60.99;;
79200;Laerm;68628;48.714;9.472;2023-07-09T12:14:02;45.53;32.64;61.28;;
79200;Laerm;68628;48.714;9.472;2023-07-09T12:16:37;44.19;34.24;55.22;;
79200;Laerm;68628;48.714;9.472;2023-07-09T12:19:04;44.69;35.99;56.06;;
79200;Laerm;68628;48.714;9.472;2023-07-09T12:21:38;45.17;37.06;56.68;;
79200;Laerm;68628;48.714;9.472;2023-07-09T12:26:59;46.26;34.88;65.15;;
79200;Laerm;68628;48.714;9.472;2023-07-09T12:29:35;46.78;35.53;64.69;;
79200;Laerm;68628;48.714;9.472;2023-07-09T12:32:12;47.76;35.83;65.60;;
79200;Laerm;68628;48.714;9.472;2023-07-09T12:34:39;53.11;33.27;69.12;;
79200;Laerm;68628;48.714;9.472;2023-07-09T12:37:11;46.54;32.81;62.85;;
79200;Laerm;68628;48.714;9.472;2023-07-09T12:39:38;43.81;34.34;56.14;;
79200;Laerm;68628;48.714;9.472;2023-07-09T12:42:04;41.85;33.47;54.59;;
79200;Laerm;68628;48.714;9.472;2023-07-09T12:44:36;47.77;33.73;63.64;;
79200;Laerm;68628;48.714;9.472;2023-07-09T12:47:03;43.99;35.77;55.01;;
79200;Laerm;68628;48.714;9.472;2023-07-09T12:49:36;49.47;35.30;66.13;;
79200;Laerm;68628;48.714;9.472;2023-07-09T12:52:16;48.09;37.26;63.43;;
79200;Laerm;68628;48.714;9.472;2023-07-09T12:54:59;46.52;36.80;63.91;;
79200;Laerm;68628;48.714;9.472;2023-07-09T12:57:26;69.05;35.15;98.21;;
79200;Laerm;68628;48.714;9.472;2023-07-09T12:59:55;47.80;36.33;66.58;;
79200;Laerm;68628;48.714;9.472;2023-07-09T13:02:28;46.74;37.63;61.67;;
79200;Laerm;68628;48.714;9.472;2023-07-09T13:05:05;52.75;36.17;74.16;;
79200;Laerm;68628;48.714;9.472;2023-07-09T13:07:37;48.78;34.44;66.48;;
79200;Laerm;68628;48.714;9.472;2023-07-09T13:10:17;48.38;34.36;67.67;;
79200;Laerm;68628;48.714;9.472;2023-07-09T13:12:49;47.71;35.38;66.81;;
79200;Laerm;68628;48.714;9.472;2023-07-09T13:15:43;48.08;35.24;64.58;;
79200;Laerm;68628;48.714;9.472;2023-07-09T13:18:13;51.80;36.22;72.80;;
79200;Laerm;68628;48.714;9.472;2023-07-09T13:20:45;49.80;36.54;64.21;;
79200;Laerm;68628;48.714;9.472;2023-07-09T13:23:26;53.24;36.37;72.21;;
79200;Laerm;68628;48.714;9.472;2023-07-09T13:25:53;46.41;36.54;62.17;;
79200;Laerm;68628;48.714;9.472;2023-07-09T13:28:29;44.52;34.67;61.29;;
79200;Laerm;68628;48.714;9.472;2023-07-09T13:31:14;46.50;35.00;62.46;;
79200;Laerm;68628;48.714;9.472;2023-07-09T13:33:50;45.90;33.59;55.20;;
79200;Laerm;68628;48.714;9.472;2023-07-09T13:36:15;40.98;33.48;50.59;;
79200;Laerm;68628;48.714;9.472;2023-07-09T13:38:41;44.22;35.44;53.34;;
79200;Laerm;68628;48.714;9.472;2023-07-09T13:41:15;43.07;35.27;58.44;;
79200;Laerm;68628;48.714;9.472;2023-07-09T13:43:47;50.13;36.48;73.13;;
79200;Laerm;68628;48.714;9.472;2023-07-09T13:46:14;53.50;35.43;75.62;;
79200;Laerm;68628;48.714;9.472;2023-07-09T13:48:43;57.43;35.34;80.26;;
79200;Laerm;68628;48.714;9.472;2023-07-09T13:51:18;47.86;36.53;68.60;;
79200;Laerm;68628;48.714;9.472;2023-07-09T13:53:45;43.53;36.67;57.67;;
79200;Laerm;68628;48.714;9.472;2023-07-09T13:56:12;45.17;36.51;60.51;;
79200;Laerm;68628;48.714;9.472;2023-07-09T13:58:37;50.48;36.68;71.92;;
79200;Laerm;68628;48.714;9.472;2023-07-09T14:01:21;46.03;37.01;64.31;;
79200;Laerm;68628;48.714;9.472;2023-07-09T14:03:48;44.31;36.83;63.68;;
79200;Laerm;68628;48.714;9.472;2023-07-09T14:06:17;48.72;36.15;70.76;;
79200;Laerm;68628;48.714;9.472;2023-07-09T14:08:43;56.29;35.70;82.79;;
79200;Laerm;68628;48.714;9.472;2023-07-09T14:11:16;50.01;37.81;66.57;;
79200;Laerm;68628;48.714;9.472;2023-07-09T14:13:43;47.66;35.22;61.86;;
79200;Laerm;68628;48.714;9.472;2023-07-09T14:16:13;40.28;34.60;52.17;;
79200;Laerm;68628;48.714;9.472;2023-07-09T14:18:40;42.08;33.65;57.36;;
79200;Laerm;68628;48.714;9.472;2023-07-09T14:21:25;39.22;34.49;50.12;;
79200;Laerm;68628;48.714;9.472;2023-07-09T14:23:53;45.57;36.94;53.53;;
79200;Laerm;68628;48.714;9.472;2023-07-09T14:26:19;52.05;37.23;79.07;;
79200;Laerm;68628;48.714;9.472;2023-07-09T14:28:45;54.74;35.77;79.82;;
79200;Laerm;68628;48.714;9.472;2023-07-09T14:31:25;43.07;36.47;58.27;;
79200;Laerm;68628;48.714;9.472;2023-07-09T14:33:52;47.45;36.85;70.80;;
79200;Laerm;68628;48.714;9.472;2023-07-09T14:36:17;46.01;35.98;64.32;;
79200;Laerm;68628;48.714;9.472;2023-07-09T14:38:43;43.91;35.36;62.56;;
79200;Laerm;68628;48.714;9.472;2023-07-09T14:41:26;44.37;35.24;57.99;;